sensor_id;sensor_type;location;lat;lon;timestamp;P1;durP1;ratioP1;P2;durP2;ratioP2
65567;SDS011;52211;50.154;8.682;2023-04-25T00:00:08;4.93;;;4.53;;
65567;SDS011;52211;50.154;8.682;2023-04-25T00:02:39;6.00;;;5.13;;
65567;SDS011;52211;50.154;8.682;2023-04-25T00:05:07;7.63;;;5.47;;
65567;SDS011;52211;50.154;8.682;2023-04-25T00:07:38;5.53;;;5.03;;
65567;SDS011;52211;50.154;8.682;2023-04-25T00:10:11;6.07;;;5.57;;
65567;SDS011;52211;50.154;8.682;2023-04-25T00:12:39;5.10;;;4.60;;
65567;SDS011;52211;50.154;8.682;2023-04-25T00:15:07;4.67;;;4.27;;
65567;SDS011;52211;50.154;8.682;2023-04-25T00:17:39;5.53;;;4.87;;
65567;SDS011;52211;50.154;8.682;2023-04-25T00:20:09;5.40;;;4.90;;
65567;SDS011;52211;50.154;8.682;2023-04-25T00:22:37;5.63;;;4.57;;
65567;SDS011;52211;50.154;8.682;2023-04-25T00:25:04;5.37;;;4.83;;
65567;SDS011;52211;50.154;8.682;2023-04-25T00:27:32;4.73;;;4.33;;
65567;SDS011;52211;50.154;8.682;2023-04-25T00:30:03;5.60;;;4.27;;
65567;SDS011;52211;50.154;8.682;2023-04-25T00:32:32;5.33;;;4.40;;
65567;SDS011;52211;50.154;8.682;2023-04-25T00:35:04;5.90;;;4.60;;
65567;SDS011;52211;50.154;8.682;2023-04-25T00:37:32;5.07;;;4.63;;
65567;SDS011;52211;50.154;8.682;2023-04-25T00:40:01;5.07;;;4.57;;
65567;SDS011;52211;50.154;8.682;2023-04-25T00:42:37;5.30;;;4.70;;
65567;SDS011;52211;50.154;8.682;2023-04-25T00:45:09;5.63;;;4.70;;
65567;SDS011;52211;50.154;8.682;2023-04-25T00:47:46;6.20;;;4.80;;
65567;SDS011;52211;50.154;8.682;2023-04-25T00:50:25;5.40;;;4.63;;
65567;SDS011;52211;50.154;8.682;2023-04-25T00:52:52;5.00;;;4.40;;
65567;SDS011;52211;50.154;8.682;2023-04-25T00:55:19;4.83;;;4.33;;
65567;SDS011;52211;50.154;8.682;2023-04-25T00:57:46;4.87;;;4.47;;
65567;SDS011;52211;50.154;8.682;2023-04-25T01:00:18;5.87;;;5.13;;
65567;SDS011;52211;50.154;8.682;2023-04-25T01:02:48;5.63;;;4.70;;
65567;SDS011;52211;50.154;8.682;2023-04-25T01:05:16;4.87;;;4.30;;
65567;SDS011;52211;50.154;8.682;2023-04-25T01:07:45;5.77;;;4.57;;
65567;SDS011;52211;50.154;8.682;2023-04-25T01:10:14;4.93;;;4.50;;
65567;SDS011;52211;50.154;8.682;2023-04-25T01:12:43;6.27;;;4.57;;
65567;SDS011;52211;50.154;8.682;2023-04-25T01:15:13;5.10;;;4.70;;
65567;SDS011;52211;50.154;8.682;2023-04-25T01:17:42;5.07;;;4.60;;
65567;SDS011;52211;50.154;8.682;2023-04-25T01:20:12;6.20;;;4.80;;
65567;SDS011;52211;50.154;8.682;2023-04-25T01:22:45;5.20;;;4.40;;
65567;SDS011;52211;50.154;8.682;2023-04-25T01:25:17;4.73;;;4.23;;
65567;SDS011;52211;50.154;8.682;2023-04-25T01:27:49;4.50;;;4.10;;
65567;SDS011;52211;50.154;8.682;2023-04-25T01:30:18;5.57;;;5.07;;
65567;SDS011;52211;50.154;8.682;2023-04-25T01:32:48;5.33;;;4.33;;
65567;SDS011;52211;50.154;8.682;2023-04-25T01:35:16;5.20;;;4.37;;
65567;SDS011;52211;50.154;8.682;2023-04-25T01:37:52;4.83;;;3.83;;
65567;SDS011;52211;50.154;8.682;2023-04-25T01:40:21;5.03;;;4.47;;
65567;SDS011;52211;50.154;8.682;2023-04-25T01:42:50;4.27;;;3.87;;
65567;SDS011;52211;50.154;8.682;2023-04-25T01:45:22;4.30;;;3.90;;
65567;SDS011;52211;50.154;8.682;2023-04-25T01:47:53;5.13;;;4.37;;
65567;SDS011;52211;50.154;8.682;2023-04-25T01:50:20;5.03;;;3.83;;
65567;SDS011;52211;50.154;8.682;2023-04-25T01:52:52;4.60;;;3.93;;
65567;SDS011;52211;50.154;8.682;2023-04-25T01:55:22;4.40;;;3.87;;
65567;SDS011;52211;50.154;8.682;2023-04-25T01:58:00;4.63;;;4.23;;
65567;SDS011;52211;50.154;8.682;2023-04-25T02:00:56;5.40;;;4.57;;
65567;SDS011;52211;50.154;8.682;2023-04-25T02:03:31;3.80;;;3.50;;
65567;SDS011;52211;50.154;8.682;2023-04-25T02:06:06;4.17;;;3.80;;
65567;SDS011;52211;50.154;8.682;2023-04-25T02:08:36;4.17;;;3.77;;
65567;SDS011;52211;50.154;8.682;2023-04-25T02:11:03;4.47;;;3.40;;
65567;SDS011;52211;50.154;8.682;2023-04-25T02:13:38;4.87;;;3.37;;
65567;SDS011;52211;50.154;8.682;2023-04-25T02:16:25;4.33;;;3.90;;
65567;SDS011;52211;50.154;8.682;2023-04-25T02:18:54;5.00;;;3.93;;
65567;SDS011;52211;50.154;8.682;2023-04-25T02:21:26;3.90;;;3.40;;
65567;SDS011;52211;50.154;8.682;2023-04-25T02:23:55;3.90;;;3.53;;
65567;SDS011;52211;50.154;8.682;2023-04-25T02:26:27;4.50;;;3.90;;
65567;SDS011;52211;50.154;8.682;2023-04-25T02:28:54;3.87;;;3.57;;
65567;SDS011;52211;50.154;8.682;2023-04-25T02:31:23;3.70;;;3.30;;
65567;SDS011;52211;50.154;8.682;2023-04-25T02:33:55;4.23;;;3.60;;
65567;SDS011;52211;50.154;8.682;2023-04-25T02:36:26;4.13;;;3.33;;
65567;SDS011;52211;50.154;8.682;2023-04-25T02:38:58;5.03;;;4.53;;
65567;SDS011;52211;50.154;8.682;2023-04-25T02:41:27;4.07;;;3.73;;
65567;SDS011;52211;50.154;8.682;2023-04-25T02:43:57;5.83;;;3.90;;
65567;SDS011;52211;50.154;8.682;2023-04-25T02:46:23;3.83;;;3.47;;
65567;SDS011;52211;50.154;8.682;2023-04-25T02:49:06;4.10;;;3.70;;
65567;SDS011;52211;50.154;8.682;2023-04-25T02:51:36;6.23;;;4.30;;
65567;SDS011;52211;50.154;8.682;2023-04-25T02:54:06;5.00;;;3.50;;
65567;SDS011;52211;50.154;8.682;2023-04-25T02:56:37;3.90;;;3.60;;
65567;SDS011;52211;50.154;8.682;2023-04-25T02:59:09;3.23;;;3.03;;
65567;SDS011;52211;50.154;8.682;2023-04-25T03:01:43;4.50;;;3.67;;
65567;SDS011;52211;50.154;8.682;2023-04-25T03:04:12;4.07;;;3.67;;
65567;SDS011;52211;50.154;8.682;2023-04-25T03:06:41;4.03;;;3.67;;
65567;SDS011;52211;50.154;8.682;2023-04-25T03:09:11;4.20;;;3.90;;
65567;SDS011;52211;50.154;8.682;2023-04-25T03:11:43;5.23;;;4.73;;
65567;SDS011;52211;50.154;8.682;2023-04-25T03:14:14;5.23;;;4.03;;
65567;SDS011;52211;50.154;8.682;2023-04-25T03:16:41;4.27;;;3.80;;
65567;SDS011;52211;50.154;8.682;2023-04-25T03:19:08;4.67;;;4.27;;
65567;SDS011;52211;50.154;8.682;2023-04-25T03:21:35;4.40;;;4.00;;
65567;SDS011;52211;50.154;8.682;2023-04-25T03:24:03;6.87;;;4.47;;
65567;SDS011;52211;50.154;8.682;2023-04-25T03:26:35;4.57;;;4.17;;
65567;SDS011;52211;50.154;8.682;2023-04-25T03:29:02;4.83;;;4.43;;
65567;SDS011;52211;50.154;8.682;2023-04-25T03:31:33;4.60;;;4.20;;
65567;SDS011;52211;50.154;8.682;2023-04-25T03:34:00;4.40;;;4.00;;
65567;SDS011;52211;50.154;8.682;2023-04-25T03:36:26;5.40;;;4.17;;
65567;SDS011;52211;50.154;8.682;2023-04-25T03:38:55;4.83;;;4.30;;
65567;SDS011;52211;50.154;8.682;2023-04-25T03:41:29;4.53;;;3.90;;
65567;SDS011;52211;50.154;8.682;2023-04-25T03:44:01;6.17;;;4.80;;
65567;SDS011;52211;50.154;8.682;2023-04-25T03:46:33;4.83;;;4.33;;
65567;SDS011;52211;50.154;8.682;2023-04-25T03:49:02;5.90;;;4.33;;
65567;SDS011;52211;50.154;8.682;2023-04-25T03:51:50;5.17;;;4.67;;
65567;SDS011;52211;50.154;8.682;2023-04-25T03:54:17;4.93;;;4.43;;
65567;SDS011;52211;50.154;8.682;2023-04-25T03:56:55;5.93;;;4.80;;
65567;SDS011;52211;50.154;8.682;2023-04-25T03:59:26;6.23;;;5.40;;
65567;SDS011;52211;50.154;8.682;2023-04-25T04:01:52;5.33;;;4.83;;
65567;SDS011;52211;50.154;8.682;2023-04-25T04:04:22;5.33;;;4.83;;
65567;SDS011;52211;50.154;8.682;2023-04-25T04:06:52;5.47;;;4.87;;
65567;SDS011;52211;50.154;8.682;2023-04-25T04:09:27;5.63;;;5.13;;
65567;SDS011;52211;50.154;8.682;2023-04-25T04:12:01;5.33;;;4.80;;
65567;SDS011;52211;50.154;8.682;2023-04-25T04:14:30;5.37;;;4.87;;
65567;SDS011;52211;50.154;8.682;2023-04-25T04:16:57;5.27;;;4.87;;
65567;SDS011;52211;50.154;8.682;2023-04-25T04:19:27;4.63;;;4.23;;
65567;SDS011;52211;50.154;8.682;2023-04-25T04:22:08;4.60;;;3.93;;
65567;SDS011;52211;50.154;8.682;2023-04-25T04:24:39;5.00;;;4.50;;
65567;SDS011;52211;50.154;8.682;2023-04-25T04:27:12;5.40;;;4.90;;
65567;SDS011;52211;50.154;8.682;2023-04-25T04:29:57;7.03;;;4.67;;
65567;SDS011;52211;50.154;8.682;2023-04-25T04:32:33;6.67;;;4.10;;
65567;SDS011;52211;50.154;8.682;2023-04-25T04:35:03;8.10;;;4.83;;
65567;SDS011;52211;50.154;8.682;2023-04-25T04:37:37;5.23;;;4.00;;
65567;SDS011;52211;50.154;8.682;2023-04-25T04:40:08;7.10;;;4.00;;
65567;SDS011;52211;50.154;8.682;2023-04-25T04:42:43;7.60;;;4.17;;
65567;SDS011;52211;50.154;8.682;2023-04-25T04:45:25;6.57;;;3.97;;
65567;SDS011;52211;50.154;8.682;2023-04-25T04:48:20;5.47;;;4.20;;
65567;SDS011;52211;50.154;8.682;2023-04-25T04:51:16;7.33;;;4.07;;
65567;SDS011;52211;50.154;8.682;2023-04-25T04:54:08;5.70;;;4.13;;
65567;SDS011;52211;50.154;8.682;2023-04-25T04:57:01;7.90;;;4.40;;
65567;SDS011;52211;50.154;8.682;2023-04-25T04:59:51;7.07;;;4.50;;
65567;SDS011;52211;50.154;8.682;2023-04-25T05:02:38;6.07;;;4.13;;
65567;SDS011;52211;50.154;8.682;2023-04-25T05:05:28;4.70;;;4.27;;
65567;SDS011;52211;50.154;8.682;2023-04-25T05:08:16;5.90;;;4.00;;
65567;SDS011;52211;50.154;8.682;2023-04-25T05:10:54;8.73;;;4.40;;
65567;SDS011;52211;50.154;8.682;2023-04-25T05:13:52;6.17;;;4.20;;
65567;SDS011;52211;50.154;8.682;2023-04-25T05:16:38;7.57;;;4.17;;
65567;SDS011;52211;50.154;8.682;2023-04-25T05:19:19;8.07;;;4.20;;
65567;SDS011;52211;50.154;8.682;2023-04-25T05:22:02;10.50;;;4.50;;
65567;SDS011;52211;50.154;8.682;2023-04-25T05:24:59;8.40;;;3.90;;
65567;SDS011;52211;50.154;8.682;2023-04-25T05:27:54;5.77;;;3.87;;
65567;SDS011;52211;50.154;8.682;2023-04-25T05:30:40;5.20;;;3.47;;
65567;SDS011;52211;50.154;8.682;2023-04-25T05:33:36;6.43;;;3.80;;
65567;SDS011;52211;50.154;8.682;2023-04-25T05:36:06;6.27;;;3.83;;
65567;SDS011;52211;50.154;8.682;2023-04-25T05:38:36;5.70;;;4.17;;
65567;SDS011;52211;50.154;8.682;2023-04-25T05:41:06;6.00;;;3.50;;
65567;SDS011;52211;50.154;8.682;2023-04-25T05:44:04;6.20;;;3.37;;
65567;SDS011;52211;50.154;8.682;2023-04-25T05:46:48;7.07;;;3.77;;
65567;SDS011;52211;50.154;8.682;2023-04-25T05:49:50;4.53;;;3.60;;
65567;SDS011;52211;50.154;8.682;2023-04-25T05:52:45;6.40;;;3.47;;
65567;SDS011;52211;50.154;8.682;2023-04-25T05:55:29;7.50;;;4.40;;
65567;SDS011;52211;50.154;8.682;2023-04-25T05:58:04;6.57;;;3.50;;
65567;SDS011;52211;50.154;8.682;2023-04-25T06:00:32;4.87;;;3.30;;
65567;SDS011;52211;50.154;8.682;2023-04-25T06:03:04;16.40;;;4.73;;
65567;SDS011;52211;50.154;8.682;2023-04-25T06:05:34;4.90;;;3.57;;
65567;SDS011;52211;50.154;8.682;2023-04-25T06:08:04;5.20;;;3.33;;
65567;SDS011;52211;50.154;8.682;2023-04-25T06:10:36;3.70;;;3.20;;
65567;SDS011;52211;50.154;8.682;2023-04-25T06:13:06;4.27;;;3.67;;
65567;SDS011;52211;50.154;8.682;2023-04-25T06:15:36;4.67;;;3.23;;
65567;SDS011;52211;50.154;8.682;2023-04-25T06:18:05;7.53;;;3.63;;
65567;SDS011;52211;50.154;8.682;2023-04-25T06:20:35;8.93;;;3.10;;
65567;SDS011;52211;50.154;8.682;2023-04-25T06:23:06;5.50;;;3.10;;
65567;SDS011;52211;50.154;8.682;2023-04-25T06:25:47;7.90;;;3.97;;
65567;SDS011;52211;50.154;8.682;2023-04-25T06:28:14;4.57;;;2.83;;
65567;SDS011;52211;50.154;8.682;2023-04-25T06:30:43;5.37;;;3.53;;
65567;SDS011;52211;50.154;8.682;2023-04-25T06:33:16;3.40;;;3.07;;
65567;SDS011;52211;50.154;8.682;2023-04-25T06:35:45;4.20;;;3.30;;
65567;SDS011;52211;50.154;8.682;2023-04-25T06:38:16;4.30;;;3.47;;
65567;SDS011;52211;50.154;8.682;2023-04-25T06:40:52;5.70;;;3.13;;
65567;SDS011;52211;50.154;8.682;2023-04-25T06:43:21;6.37;;;2.87;;
65567;SDS011;52211;50.154;8.682;2023-04-25T06:45:56;5.20;;;3.07;;
65567;SDS011;52211;50.154;8.682;2023-04-25T06:48:27;5.57;;;2.70;;
65567;SDS011;52211;50.154;8.682;2023-04-25T06:50:57;4.30;;;3.50;;
65567;SDS011;52211;50.154;8.682;2023-04-25T06:53:27;6.07;;;3.33;;
65567;SDS011;52211;50.154;8.682;2023-04-25T06:55:58;6.57;;;3.50;;
65567;SDS011;52211;50.154;8.682;2023-04-25T06:58:43;5.27;;;3.43;;
65567;SDS011;52211;50.154;8.682;2023-04-25T07:01:16;3.30;;;3.00;;
65567;SDS011;52211;50.154;8.682;2023-04-25T07:03:46;4.90;;;2.97;;
65567;SDS011;52211;50.154;8.682;2023-04-25T07:06:17;4.40;;;3.53;;
65567;SDS011;52211;50.154;8.682;2023-04-25T07:08:49;3.63;;;3.00;;
65567;SDS011;52211;50.154;8.682;2023-04-25T07:11:18;5.43;;;2.97;;
65567;SDS011;52211;50.154;8.682;2023-04-25T07:13:50;6.40;;;2.87;;
65567;SDS011;52211;50.154;8.682;2023-04-25T07:16:22;3.90;;;3.40;;
65567;SDS011;52211;50.154;8.682;2023-04-25T07:18:49;4.70;;;3.30;;
65567;SDS011;52211;50.154;8.682;2023-04-25T07:21:21;5.67;;;2.83;;
65567;SDS011;52211;50.154;8.682;2023-04-25T07:23:55;5.27;;;3.40;;
65567;SDS011;52211;50.154;8.682;2023-04-25T07:26:29;5.70;;;3.00;;
65567;SDS011;52211;50.154;8.682;2023-04-25T07:29:21;3.13;;;2.63;;
65567;SDS011;52211;50.154;8.682;2023-04-25T07:31:48;4.87;;;3.10;;
65567;SDS011;52211;50.154;8.682;2023-04-25T07:34:20;4.97;;;3.10;;
65567;SDS011;52211;50.154;8.682;2023-04-25T07:36:52;2.90;;;2.53;;
65567;SDS011;52211;50.154;8.682;2023-04-25T07:39:23;3.63;;;2.50;;
65567;SDS011;52211;50.154;8.682;2023-04-25T07:41:53;4.80;;;2.97;;
65567;SDS011;52211;50.154;8.682;2023-04-25T07:44:24;2.63;;;2.30;;
65567;SDS011;52211;50.154;8.682;2023-04-25T07:46:52;3.97;;;2.87;;
65567;SDS011;52211;50.154;8.682;2023-04-25T07:49:19;3.40;;;2.80;;
65567;SDS011;52211;50.154;8.682;2023-04-25T07:51:47;2.77;;;2.43;;
65567;SDS011;52211;50.154;8.682;2023-04-25T07:54:18;3.40;;;2.73;;
65567;SDS011;52211;50.154;8.682;2023-04-25T07:56:53;4.60;;;2.60;;
65567;SDS011;52211;50.154;8.682;2023-04-25T07:59:29;3.27;;;2.97;;
65567;SDS011;52211;50.154;8.682;2023-04-25T08:01:59;3.97;;;2.90;;
65567;SDS011;52211;50.154;8.682;2023-04-25T08:04:28;2.43;;;2.23;;
65567;SDS011;52211;50.154;8.682;2023-04-25T08:07:01;4.23;;;2.70;;
65567;SDS011;52211;50.154;8.682;2023-04-25T08:09:40;2.97;;;2.50;;
65567;SDS011;52211;50.154;8.682;2023-04-25T08:12:17;3.07;;;2.77;;
65567;SDS011;52211;50.154;8.682;2023-04-25T08:14:47;3.70;;;2.80;;
65567;SDS011;52211;50.154;8.682;2023-04-25T08:17:15;3.27;;;2.73;;
65567;SDS011;52211;50.154;8.682;2023-04-25T08:19:42;3.40;;;2.77;;
65567;SDS011;52211;50.154;8.682;2023-04-25T08:22:17;3.00;;;2.60;;
65567;SDS011;52211;50.154;8.682;2023-04-25T08:24:50;3.07;;;2.83;;
65567;SDS011;52211;50.154;8.682;2023-04-25T08:27:24;3.23;;;2.93;;
65567;SDS011;52211;50.154;8.682;2023-04-25T08:29:51;3.60;;;3.20;;
65567;SDS011;52211;50.154;8.682;2023-04-25T08:32:21;2.90;;;2.60;;
65567;SDS011;52211;50.154;8.682;2023-04-25T08:35:17;3.67;;;3.37;;
65567;SDS011;52211;50.154;8.682;2023-04-25T08:37:44;3.20;;;2.90;;
65567;SDS011;52211;50.154;8.682;2023-04-25T08:40:15;3.13;;;2.77;;
65567;SDS011;52211;50.154;8.682;2023-04-25T08:42:53;6.03;;;3.37;;
65567;SDS011;52211;50.154;8.682;2023-04-25T08:45:22;5.63;;;3.83;;
65567;SDS011;52211;50.154;8.682;2023-04-25T08:47:53;6.10;;;3.37;;
65567;SDS011;52211;50.154;8.682;2023-04-25T08:50:23;3.53;;;3.23;;
65567;SDS011;52211;50.154;8.682;2023-04-25T08:52:53;3.37;;;3.07;;
65567;SDS011;52211;50.154;8.682;2023-04-25T08:55:27;4.77;;;3.87;;
65567;SDS011;52211;50.154;8.682;2023-04-25T08:57:58;4.37;;;3.10;;
65567;SDS011;52211;50.154;8.682;2023-04-25T09:00:27;4.40;;;2.87;;
65567;SDS011;52211;50.154;8.682;2023-04-25T09:02:55;3.93;;;3.30;;
65567;SDS011;52211;50.154;8.682;2023-04-25T09:05:28;3.57;;;3.27;;
65567;SDS011;52211;50.154;8.682;2023-04-25T09:07:59;3.73;;;3.40;;
65567;SDS011;52211;50.154;8.682;2023-04-25T09:10:27;4.77;;;3.20;;
65567;SDS011;52211;50.154;8.682;2023-04-25T09:16:12;4.07;;;3.67;;
65567;SDS011;52211;50.154;8.682;2023-04-25T09:19:20;3.60;;;3.30;;
65567;SDS011;52211;50.154;8.682;2023-04-25T09:22:14;3.70;;;3.40;;
65567;SDS011;52211;50.154;8.682;2023-04-25T09:24:46;5.70;;;3.30;;
65567;SDS011;52211;50.154;8.682;2023-04-25T09:27:20;4.60;;;3.50;;
65567;SDS011;52211;50.154;8.682;2023-04-25T09:30:02;4.13;;;2.80;;
65567;SDS011;52211;50.154;8.682;2023-04-25T09:32:51;3.50;;;3.20;;
65567;SDS011;52211;50.154;8.682;2023-04-25T09:35:26;3.73;;;3.37;;
65567;SDS011;52211;50.154;8.682;2023-04-25T09:37:59;4.07;;;3.70;;
65567;SDS011;52211;50.154;8.682;2023-04-25T09:40:45;4.03;;;2.97;;
65567;SDS011;52211;50.154;8.682;2023-04-25T09:43:24;4.90;;;3.40;;
65567;SDS011;52211;50.154;8.682;2023-04-25T09:45:53;3.97;;;2.97;;
65567;SDS011;52211;50.154;8.682;2023-04-25T09:48:29;3.67;;;3.00;;
65567;SDS011;52211;50.154;8.682;2023-04-25T09:53:45;3.93;;;3.13;;
65567;SDS011;52211;50.154;8.682;2023-04-25T09:56:42;6.13;;;3.30;;
65567;SDS011;52211;50.154;8.682;2023-04-25T09:59:18;3.03;;;2.80;;
65567;SDS011;52211;50.154;8.682;2023-04-25T10:01:51;3.80;;;3.20;;
65567;SDS011;52211;50.154;8.682;2023-04-25T10:04:28;3.07;;;2.80;;
65567;SDS011;52211;50.154;8.682;2023-04-25T10:07:07;4.43;;;3.20;;
65567;SDS011;52211;50.154;8.682;2023-04-25T10:09:39;4.23;;;3.27;;
65567;SDS011;52211;50.154;8.682;2023-04-25T10:12:09;3.20;;;2.53;;
65567;SDS011;52211;50.154;8.682;2023-04-25T10:14:42;4.40;;;2.67;;
65567;SDS011;52211;50.154;8.682;2023-04-25T10:17:11;3.70;;;3.40;;
65567;SDS011;52211;50.154;8.682;2023-04-25T10:19:40;4.13;;;3.13;;
65567;SDS011;52211;50.154;8.682;2023-04-25T10:22:29;3.53;;;2.93;;
65567;SDS011;52211;50.154;8.682;2023-04-25T10:25:06;3.87;;;3.03;;
65567;SDS011;52211;50.154;8.682;2023-04-25T10:27:34;5.57;;;2.87;;
65567;SDS011;52211;50.154;8.682;2023-04-25T10:32:42;7.57;;;3.70;;
65567;SDS011;52211;50.154;8.682;2023-04-25T10:35:19;3.47;;;3.03;;
65567;SDS011;52211;50.154;8.682;2023-04-25T10:37:59;3.33;;;3.03;;
65567;SDS011;52211;50.154;8.682;2023-04-25T10:40:30;3.40;;;3.00;;
65567;SDS011;52211;50.154;8.682;2023-04-25T10:46:01;3.30;;;3.00;;
65567;SDS011;52211;50.154;8.682;2023-04-25T10:48:43;3.83;;;3.00;;
65567;SDS011;52211;50.154;8.682;2023-04-25T10:54:06;3.23;;;2.73;;
65567;SDS011;52211;50.154;8.682;2023-04-25T10:59:06;2.87;;;2.37;;
65567;SDS011;52211;50.154;8.682;2023-04-25T11:01:44;4.13;;;2.70;;
65567;SDS011;52211;50.154;8.682;2023-04-25T11:07:23;3.50;;;2.90;;
65567;SDS011;52211;50.154;8.682;2023-04-25T11:10:02;3.20;;;2.90;;
65567;SDS011;52211;50.154;8.682;2023-04-25T11:12:37;3.27;;;2.73;;
65567;SDS011;52211;50.154;8.682;2023-04-25T11:15:09;2.70;;;2.50;;
65567;SDS011;52211;50.154;8.682;2023-04-25T11:17:39;2.77;;;2.47;;
65567;SDS011;52211;50.154;8.682;2023-04-25T11:20:07;4.60;;;2.60;;
65567;SDS011;52211;50.154;8.682;2023-04-25T11:22:38;3.00;;;2.63;;
65567;SDS011;52211;50.154;8.682;2023-04-25T11:25:09;2.97;;;2.67;;
65567;SDS011;52211;50.154;8.682;2023-04-25T11:30:24;3.53;;;2.93;;
65567;SDS011;52211;50.154;8.682;2023-04-25T11:32:56;4.67;;;2.73;;
65567;SDS011;52211;50.154;8.682;2023-04-25T11:35:24;2.87;;;2.57;;
65567;SDS011;52211;50.154;8.682;2023-04-25T11:37:51;4.27;;;2.77;;
65567;SDS011;52211;50.154;8.682;2023-04-25T11:40:19;5.20;;;2.90;;
65567;SDS011;52211;50.154;8.682;2023-04-25T11:42:46;3.40;;;2.47;;
65567;SDS011;52211;50.154;8.682;2023-04-25T11:45:20;3.43;;;2.27;;
65567;SDS011;52211;50.154;8.682;2023-04-25T11:47:53;3.20;;;2.70;;
65567;SDS011;52211;50.154;8.682;2023-04-25T11:50:25;4.33;;;2.43;;
65567;SDS011;52211;50.154;8.682;2023-04-25T11:52:59;2.77;;;2.17;;
65567;SDS011;52211;50.154;8.682;2023-04-25T11:55:28;4.23;;;2.90;;
65567;SDS011;52211;50.154;8.682;2023-04-25T11:57:59;2.43;;;2.30;;
65567;SDS011;52211;50.154;8.682;2023-04-25T12:00:32;2.93;;;2.30;;
65567;SDS011;52211;50.154;8.682;2023-04-25T12:03:04;3.27;;;3.00;;
65567;SDS011;52211;50.154;8.682;2023-04-25T12:05:37;3.70;;;2.93;;
65567;SDS011;52211;50.154;8.682;2023-04-25T12:08:12;5.43;;;2.53;;
65567;SDS011;52211;50.154;8.682;2023-04-25T12:10:43;6.27;;;2.77;;
65567;SDS011;52211;50.154;8.682;2023-04-25T12:13:21;4.40;;;3.27;;
65567;SDS011;52211;50.154;8.682;2023-04-25T12:15:55;4.87;;;3.20;;
65567;SDS011;52211;50.154;8.682;2023-04-25T12:18:26;3.97;;;2.87;;
65567;SDS011;52211;50.154;8.682;2023-04-25T12:20:56;2.40;;;2.20;;
65567;SDS011;52211;50.154;8.682;2023-04-25T12:23:30;3.57;;;2.83;;
65567;SDS011;52211;50.154;8.682;2023-04-25T12:25:57;4.90;;;2.73;;
65567;SDS011;52211;50.154;8.682;2023-04-25T12:28:24;5.23;;;2.87;;
65567;SDS011;52211;50.154;8.682;2023-04-25T12:30:57;7.53;;;2.93;;
65567;SDS011;52211;50.154;8.682;2023-04-25T12:33:26;4.70;;;3.43;;
65567;SDS011;52211;50.154;8.682;2023-04-25T12:36:00;4.57;;;3.13;;
65567;SDS011;52211;50.154;8.682;2023-04-25T12:38:39;5.10;;;2.10;;
65567;SDS011;52211;50.154;8.682;2023-04-25T12:41:09;4.73;;;2.57;;
65567;SDS011;52211;50.154;8.682;2023-04-25T12:43:36;6.47;;;2.60;;
65567;SDS011;52211;50.154;8.682;2023-04-25T12:46:07;3.70;;;2.43;;
65567;SDS011;52211;50.154;8.682;2023-04-25T12:48:37;3.73;;;3.10;;
65567;SDS011;52211;50.154;8.682;2023-04-25T12:51:12;3.87;;;2.33;;
65567;SDS011;52211;50.154;8.682;2023-04-25T12:53:41;2.40;;;2.20;;
65567;SDS011;52211;50.154;8.682;2023-04-25T12:56:11;2.83;;;2.40;;
65567;SDS011;52211;50.154;8.682;2023-04-25T12:58:37;3.43;;;2.50;;
65567;SDS011;52211;50.154;8.682;2023-04-25T13:01:07;4.50;;;2.57;;
65567;SDS011;52211;50.154;8.682;2023-04-25T13:03:37;3.40;;;2.43;;
65567;SDS011;52211;50.154;8.682;2023-04-25T13:06:07;2.97;;;2.30;;
65567;SDS011;52211;50.154;8.682;2023-04-25T13:08:34;2.57;;;2.17;;
65567;SDS011;52211;50.154;8.682;2023-04-25T13:11:04;3.47;;;2.17;;
65567;SDS011;52211;50.154;8.682;2023-04-25T13:13:36;3.40;;;2.40;;
65567;SDS011;52211;50.154;8.682;2023-04-25T13:16:04;4.07;;;3.10;;
65567;SDS011;52211;50.154;8.682;2023-04-25T13:18:31;3.60;;;2.40;;
65567;SDS011;52211;50.154;8.682;2023-04-25T13:21:01;2.80;;;2.60;;
65567;SDS011;52211;50.154;8.682;2023-04-25T13:23:28;6.47;;;2.60;;
65567;SDS011;52211;50.154;8.682;2023-04-25T13:30:49;2.93;;;2.30;;
65567;SDS011;52211;50.154;8.682;2023-04-25T13:33:19;3.00;;;2.20;;
65567;SDS011;52211;50.154;8.682;2023-04-25T13:35:49;2.77;;;2.53;;
65567;SDS011;52211;50.154;8.682;2023-04-25T13:38:25;3.23;;;2.63;;
65567;SDS011;52211;50.154;8.682;2023-04-25T13:40:54;2.30;;;2.20;;
65567;SDS011;52211;50.154;8.682;2023-04-25T13:43:21;3.60;;;2.53;;
65567;SDS011;52211;50.154;8.682;2023-04-25T13:45:49;3.37;;;2.67;;
65567;SDS011;52211;50.154;8.682;2023-04-25T13:48:20;2.70;;;2.50;;
65567;SDS011;52211;50.154;8.682;2023-04-25T13:50:50;3.97;;;2.63;;
65567;SDS011;52211;50.154;8.682;2023-04-25T13:53:17;2.00;;;1.90;;
65567;SDS011;52211;50.154;8.682;2023-04-25T13:55:47;3.23;;;2.77;;
65567;SDS011;52211;50.154;8.682;2023-04-25T13:58:14;5.73;;;2.60;;
65567;SDS011;52211;50.154;8.682;2023-04-25T14:00:46;2.60;;;2.40;;
65567;SDS011;52211;50.154;8.682;2023-04-25T14:03:15;3.10;;;2.40;;
65567;SDS011;52211;50.154;8.682;2023-04-25T14:05:47;5.80;;;2.53;;
65567;SDS011;52211;50.154;8.682;2023-04-25T14:08:19;3.67;;;1.90;;
65567;SDS011;52211;50.154;8.682;2023-04-25T14:10:49;3.57;;;2.20;;
65567;SDS011;52211;50.154;8.682;2023-04-25T14:13:16;3.37;;;2.53;;
65567;SDS011;52211;50.154;8.682;2023-04-25T14:15:42;2.07;;;1.97;;
65567;SDS011;52211;50.154;8.682;2023-04-25T14:18:10;3.43;;;2.23;;
65567;SDS011;52211;50.154;8.682;2023-04-25T14:20:37;2.20;;;1.93;;
65567;SDS011;52211;50.154;8.682;2023-04-25T14:23:08;2.23;;;1.90;;
65567;SDS011;52211;50.154;8.682;2023-04-25T14:25:35;4.67;;;2.73;;
65567;SDS011;52211;50.154;8.682;2023-04-25T14:28:03;2.67;;;2.10;;
65567;SDS011;52211;50.154;8.682;2023-04-25T14:30:30;5.27;;;2.60;;
65567;SDS011;52211;50.154;8.682;2023-04-25T14:32:59;3.13;;;2.53;;
65567;SDS011;52211;50.154;8.682;2023-04-25T14:35:26;3.67;;;2.27;;
65567;SDS011;52211;50.154;8.682;2023-04-25T14:37:55;5.37;;;3.20;;
65567;SDS011;52211;50.154;8.682;2023-04-25T14:40:25;9.53;;;5.60;;
65567;SDS011;52211;50.154;8.682;2023-04-25T14:42:57;13.37;;;7.13;;
65567;SDS011;52211;50.154;8.682;2023-04-25T14:45:24;4.87;;;4.20;;
65567;SDS011;52211;50.154;8.682;2023-04-25T14:47:57;5.40;;;3.70;;
65567;SDS011;52211;50.154;8.682;2023-04-25T14:50:24;5.37;;;3.30;;
65567;SDS011;52211;50.154;8.682;2023-04-25T14:52:53;3.40;;;2.20;;
65567;SDS011;52211;50.154;8.682;2023-04-25T14:55:28;3.87;;;2.50;;
65567;SDS011;52211;50.154;8.682;2023-04-25T14:57:57;2.77;;;2.40;;
65567;SDS011;52211;50.154;8.682;2023-04-25T15:00:24;2.30;;;1.87;;
65567;SDS011;52211;50.154;8.682;2023-04-25T15:02:51;4.50;;;2.80;;
65567;SDS011;52211;50.154;8.682;2023-04-25T15:05:21;3.73;;;1.77;;
65567;SDS011;52211;50.154;8.682;2023-04-25T15:07:50;2.07;;;1.90;;
65567;SDS011;52211;50.154;8.682;2023-04-25T15:10:18;4.37;;;2.10;;
65567;SDS011;52211;50.154;8.682;2023-04-25T15:12:47;3.57;;;2.50;;
65567;SDS011;52211;50.154;8.682;2023-04-25T15:15:17;2.40;;;2.20;;
65567;SDS011;52211;50.154;8.682;2023-04-25T15:17:52;2.60;;;1.97;;
65567;SDS011;52211;50.154;8.682;2023-04-25T15:20:24;2.83;;;1.80;;
65567;SDS011;52211;50.154;8.682;2023-04-25T15:22:53;2.23;;;1.93;;
65567;SDS011;52211;50.154;8.682;2023-04-25T15:25:21;2.03;;;1.83;;
65567;SDS011;52211;50.154;8.682;2023-04-25T15:27:48;3.60;;;2.10;;
65567;SDS011;52211;50.154;8.682;2023-04-25T15:30:15;2.90;;;2.07;;
65567;SDS011;52211;50.154;8.682;2023-04-25T15:32:48;1.83;;;1.70;;
65567;SDS011;52211;50.154;8.682;2023-04-25T15:35:20;2.77;;;1.90;;
65567;SDS011;52211;50.154;8.682;2023-04-25T15:37:52;1.90;;;1.70;;
65567;SDS011;52211;50.154;8.682;2023-04-25T15:40:21;3.87;;;1.90;;
65567;SDS011;52211;50.154;8.682;2023-04-25T15:42:51;2.63;;;1.97;;
65567;SDS011;52211;50.154;8.682;2023-04-25T15:45:27;2.00;;;1.90;;
65567;SDS011;52211;50.154;8.682;2023-04-25T15:47:56;2.93;;;1.97;;